sensor_id;sensor_type;location;lat;lon;timestamp;pressure;altitude;pressure_sealevel;temperature;humidity
5905;BME280;2978;42.012;24.880;2023-01-27T00:00:50;98059.88;;;4.76;94.14
5905;BME280;2978;42.012;24.880;2023-01-27T00:03:15;98051.34;;;4.68;93.56
5905;BME280;2978;42.012;24.880;2023-01-27T00:05:42;98042.94;;;4.69;93.93
5905;BME280;2978;42.012;24.880;2023-01-27T00:08:08;98037.06;;;4.55;94.81
5905;BME280;2978;42.012;24.880;2023-01-27T00:10:34;98050.03;;;4.48;95.37
5905;BME280;2978;42.012;24.880;2023-01-27T00:13:00;98043.47;;;4.44;95.78
5905;BME280;2978;42.012;24.880;2023-01-27T00:15:44;98047.69;;;4.57;96.00
5905;BME280;2978;42.012;24.880;2023-01-27T00:18:09;98042.41;;;4.45;94.69
5905;BME280;2978;42.012;24.880;2023-01-27T00:20:35;98042.50;;;4.55;95.39
5905;BME280;2978;42.012;24.880;2023-01-27T00:23:24;98028.16;;;4.60;94.83
5905;BME280;2978;42.012;24.880;2023-01-27T00:26:11;98035.16;;;4.78;93.61
5905;BME280;2978;42.012;24.880;2023-01-27T00:28:38;98010.88;;;4.49;93.17
5905;BME280;2978;42.012;24.880;2023-01-27T00:31:05;98012.94;;;4.64;93.66
5905;BME280;2978;42.012;24.880;2023-01-27T00:33:32;98026.13;;;4.72;93.82
5905;BME280;2978;42.012;24.880;2023-01-27T00:38:27;98023.31;;;4.94;93.86
5905;BME280;2978;42.012;24.880;2023-01-27T00:40:54;98014.91;;;4.95;93.00
5905;BME280;2978;42.012;24.880;2023-01-27T00:43:38;98035.84;;;4.90;92.27
5905;BME280;2978;42.012;24.880;2023-01-27T00:46:03;98044.38;;;4.77;92.80
5905;BME280;2978;42.012;24.880;2023-01-27T00:48:29;98052.13;;;4.41;93.32
5905;BME280;2978;42.012;24.880;2023-01-27T00:50:54;98029.38;;;4.47;94.79
5905;BME280;2978;42.012;24.880;2023-01-27T00:53:20;98015.91;;;4.63;95.07
5905;BME280;2978;42.012;24.880;2023-01-27T00:55:45;97994.97;;;4.63;94.75
5905;BME280;2978;42.012;24.880;2023-01-27T00:58:14;97972.28;;;4.52;94.00
5905;BME280;2978;42.012;24.880;2023-01-27T01:00:39;97961.66;;;4.51;94.96
5905;BME280;2978;42.012;24.880;2023-01-27T01:03:05;97943.88;;;4.43;94.49
5905;BME280;2978;42.012;24.880;2023-01-27T01:05:30;97936.06;;;4.52;94.83
5905;BME280;2978;42.012;24.880;2023-01-27T01:07:56;97932.72;;;4.72;94.51
5905;BME280;2978;42.012;24.880;2023-01-27T01:10:21;97962.53;;;4.88;94.38
5905;BME280;2978;42.012;24.880;2023-01-27T01:12:47;97986.97;;;4.51;93.60
5905;BME280;2978;42.012;24.880;2023-01-27T01:15:12;97995.97;;;4.57;93.75
5905;BME280;2978;42.012;24.880;2023-01-27T01:17:37;97981.72;;;4.72;94.06
5905;BME280;2978;42.012;24.880;2023-01-27T01:20:03;97989.88;;;4.72;93.75
5905;BME280;2978;42.012;24.880;2023-01-27T01:22:29;97997.13;;;4.61;94.32
5905;BME280;2978;42.012;24.880;2023-01-27T01:24:54;98006.06;;;4.56;94.16
5905;BME280;2978;42.012;24.880;2023-01-27T01:27:19;98013.97;;;4.58;94.78
5905;BME280;2978;42.012;24.880;2023-01-27T01:29:45;98023.81;;;4.64;94.39
5905;BME280;2978;42.012;24.880;2023-01-27T01:32:10;98022.59;;;4.77;94.21
5905;BME280;2978;42.012;24.880;2023-01-27T01:34:36;98012.34;;;4.84;93.84
5905;BME280;2978;42.012;24.880;2023-01-27T01:37:02;97997.13;;;4.88;92.71
5905;BME280;2978;42.012;24.880;2023-01-27T01:39:29;97995.59;;;4.97;93.15
5905;BME280;2978;42.012;24.880;2023-01-27T01:41:55;97986.03;;;4.94;92.39
5905;BME280;2978;42.012;24.880;2023-01-27T01:44:29;97977.50;;;4.86;92.65
5905;BME280;2978;42.012;24.880;2023-01-27T01:46:55;97973.50;;;4.67;92.84
5905;BME280;2978;42.012;24.880;2023-01-27T01:49:33;97974.13;;;4.74;93.49
5905;BME280;2978;42.012;24.880;2023-01-27T01:52:14;97971.44;;;4.79;92.64
5905;BME280;2978;42.012;24.880;2023-01-27T01:54:51;97968.13;;;4.72;92.60
5905;BME280;2978;42.012;24.880;2023-01-27T01:57:22;97957.31;;;4.82;92.81
5905;BME280;2978;42.012;24.880;2023-01-27T01:59:57;97965.78;;;4.85;92.51
5905;BME280;2978;42.012;24.880;2023-01-27T02:02:25;97970.31;;;5.01;91.89
5905;BME280;2978;42.012;24.880;2023-01-27T02:04:56;97964.25;;;4.94;91.20
5905;BME280;2978;42.012;24.880;2023-01-27T02:10:03;97940.56;;;4.95;92.20
5905;BME280;2978;42.012;24.880;2023-01-27T02:12:29;97953.41;;;4.99;92.68
5905;BME280;2978;42.012;24.880;2023-01-27T02:14:54;97942.81;;;5.03;92.43
5905;BME280;2978;42.012;24.880;2023-01-27T02:17:21;97944.56;;;5.19;92.55
5905;BME280;2978;42.012;24.880;2023-01-27T02:20:07;97940.16;;;5.13;91.90
5905;BME280;2978;42.012;24.880;2023-01-27T02:27:58;97898.75;;;4.74;93.19
5905;BME280;2978;42.012;24.880;2023-01-27T02:30:24;97916.50;;;4.87;92.73
5905;BME280;2978;42.012;24.880;2023-01-27T02:32:49;97918.94;;;4.83;92.80
5905;BME280;2978;42.012;24.880;2023-01-27T02:35:20;97904.56;;;4.88;93.30
5905;BME280;2978;42.012;24.880;2023-01-27T02:37:48;97893.66;;;4.88;93.09
5905;BME280;2978;42.012;24.880;2023-01-27T02:40:16;97892.53;;;4.84;93.00
5905;BME280;2978;42.012;24.880;2023-01-27T02:42:41;97908.75;;;5.00;93.15
5905;BME280;2978;42.012;24.880;2023-01-27T02:45:07;97899.50;;;5.01;92.84
5905;BME280;2978;42.012;24.880;2023-01-27T02:47:33;97907.03;;;4.89;92.98
5905;BME280;2978;42.012;24.880;2023-01-27T02:49:58;97908.47;;;4.97;92.93
5905;BME280;2978;42.012;24.880;2023-01-27T02:52:24;97907.94;;;5.00;93.78
5905;BME280;2978;42.012;24.880;2023-01-27T02:54:49;97907.97;;;5.05;92.11
5905;BME280;2978;42.012;24.880;2023-01-27T02:57:14;97900.06;;;5.03;91.75
5905;BME280;2978;42.012;24.880;2023-01-27T02:59:40;97887.13;;;4.89;92.64
5905;BME280;2978;42.012;24.880;2023-01-27T03:02:05;97889.78;;;4.79;92.51
5905;BME280;2978;42.012;24.880;2023-01-27T03:04:31;97879.72;;;4.79;93.52
5905;BME280;2978;42.012;24.880;2023-01-27T03:06:57;97884.06;;;4.80;92.99
5905;BME280;2978;42.012;24.880;2023-01-27T03:09:23;97871.81;;;5.14;92.72
5905;BME280;2978;42.012;24.880;2023-01-27T03:11:48;97868.59;;;5.22;92.05
5905;BME280;2978;42.012;24.880;2023-01-27T03:14:32;97867.31;;;5.35;90.85
5905;BME280;2978;42.012;24.880;2023-01-27T03:17:16;97880.91;;;5.30;89.30
5905;BME280;2978;42.012;24.880;2023-01-27T03:20:00;97894.63;;;4.72;92.09
5905;BME280;2978;42.012;24.880;2023-01-27T03:22:25;97888.22;;;4.56;93.69
5905;BME280;2978;42.012;24.880;2023-01-27T03:24:51;97895.22;;;4.79;94.68
5905;BME280;2978;42.012;24.880;2023-01-27T03:27:16;97886.56;;;4.87;95.07
5905;BME280;2978;42.012;24.880;2023-01-27T03:29:42;97878.59;;;5.12;94.26
5905;BME280;2978;42.012;24.880;2023-01-27T03:32:24;97882.25;;;5.27;93.51
5905;BME280;2978;42.012;24.880;2023-01-27T03:34:50;97906.53;;;5.34;92.33
5905;BME280;2978;42.012;24.880;2023-01-27T03:37:15;97905.97;;;5.32;92.02
5905;BME280;2978;42.012;24.880;2023-01-27T03:39:59;97893.16;;;5.27;92.39
5905;BME280;2978;42.012;24.880;2023-01-27T03:42:43;97901.63;;;5.31;92.11
5905;BME280;2978;42.012;24.880;2023-01-27T03:45:27;97900.53;;;5.32;92.35
5905;BME280;2978;42.012;24.880;2023-01-27T03:48:12;97910.72;;;5.46;90.85
5905;BME280;2978;42.012;24.880;2023-01-27T03:50:38;97909.59;;;5.47;90.62
5905;BME280;2978;42.012;24.880;2023-01-27T03:53:08;97906.09;;;5.47;90.30
5905;BME280;2978;42.012;24.880;2023-01-27T03:55:35;97895.72;;;5.44;90.82
5905;BME280;2978;42.012;24.880;2023-01-27T03:58:00;97886.50;;;5.55;91.75
5905;BME280;2978;42.012;24.880;2023-01-27T04:00:57;97876.72;;;5.64;90.46
5905;BME280;2978;42.012;24.880;2023-01-27T04:03:25;97852.75;;;5.66;89.60
5905;BME280;2978;42.012;24.880;2023-01-27T04:06:15;97859.84;;;5.67;89.47
5905;BME280;2978;42.012;24.880;2023-01-27T04:08:59;97855.22;;;5.67;90.12
5905;BME280;2978;42.012;24.880;2023-01-27T04:11:25;97850.81;;;5.61;89.77
5905;BME280;2978;42.012;24.880;2023-01-27T04:14:10;97853.19;;;5.43;89.75
5905;BME280;2978;42.012;24.880;2023-01-27T04:16:36;97849.31;;;5.34;90.23
5905;BME280;2978;42.012;24.880;2023-01-27T04:19:03;97834.50;;;5.20;90.84
5905;BME280;2978;42.012;24.880;2023-01-27T04:21:29;97842.69;;;5.20;91.54
5905;BME280;2978;42.012;24.880;2023-01-27T04:23:55;97839.13;;;5.14;91.18
5905;BME280;2978;42.012;24.880;2023-01-27T04:26:21;97849.50;;;5.17;92.39
5905;BME280;2978;42.012;24.880;2023-01-27T04:28:48;97837.19;;;5.10;92.32
5905;BME280;2978;42.012;24.880;2023-01-27T04:31:14;97835.53;;;5.04;92.34
5905;BME280;2978;42.012;24.880;2023-01-27T04:33:41;97834.94;;;4.97;93.30
5905;BME280;2978;42.012;24.880;2023-01-27T04:36:07;97845.38;;;5.15;93.11
5905;BME280;2978;42.012;24.880;2023-01-27T04:38:32;97863.97;;;5.23;93.51
5905;BME280;2978;42.012;24.880;2023-01-27T04:40:58;97854.13;;;5.22;93.04
5905;BME280;2978;42.012;24.880;2023-01-27T04:43:23;97839.44;;;5.23;93.71
5905;BME280;2978;42.012;24.880;2023-01-27T04:45:49;97839.16;;;5.19;93.31
5905;BME280;2978;42.012;24.880;2023-01-27T04:48:14;97839.69;;;5.21;92.64
5905;BME280;2978;42.012;24.880;2023-01-27T04:50:39;97841.66;;;5.26;93.26
5905;BME280;2978;42.012;24.880;2023-01-27T04:53:05;97840.03;;;5.30;92.83
5905;BME280;2978;42.012;24.880;2023-01-27T04:55:30;97838.19;;;5.40;93.02
5905;BME280;2978;42.012;24.880;2023-01-27T04:57:56;97835.25;;;5.52;91.97
5905;BME280;2978;42.012;24.880;2023-01-27T05:00:21;97838.00;;;5.62;91.47
5905;BME280;2978;42.012;24.880;2023-01-27T05:02:47;97858.75;;;5.63;90.73
5905;BME280;2978;42.012;24.880;2023-01-27T05:05:12;97866.06;;;5.57;90.56
5905;BME280;2978;42.012;24.880;2023-01-27T05:07:38;97861.47;;;5.21;91.60
5905;BME280;2978;42.012;24.880;2023-01-27T05:10:04;97858.94;;;5.05;92.51
5905;BME280;2978;42.012;24.880;2023-01-27T05:12:30;97866.00;;;5.06;94.24
5905;BME280;2978;42.012;24.880;2023-01-27T05:14:56;97872.75;;;5.30;94.19
5905;BME280;2978;42.012;24.880;2023-01-27T05:17:21;97862.38;;;5.32;92.81
5905;BME280;2978;42.012;24.880;2023-01-27T05:19:46;97871.13;;;5.39;92.97
5905;BME280;2978;42.012;24.880;2023-01-27T05:22:12;97874.91;;;5.28;92.98
5905;BME280;2978;42.012;24.880;2023-01-27T05:24:37;97866.94;;;5.21;93.38
5905;BME280;2978;42.012;24.880;2023-01-27T05:27:03;97866.72;;;5.28;92.59
5905;BME280;2978;42.012;24.880;2023-01-27T05:29:29;97887.34;;;5.14;92.42
5905;BME280;2978;42.012;24.880;2023-01-27T05:31:55;97886.81;;;5.17;92.29
5905;BME280;2978;42.012;24.880;2023-01-27T05:34:20;97889.88;;;5.30;92.18
5905;BME280;2978;42.012;24.880;2023-01-27T05:36:46;97893.50;;;5.41;91.09
5905;BME280;2978;42.012;24.880;2023-01-27T05:39:11;97902.72;;;5.30;91.08
5905;BME280;2978;42.012;24.880;2023-01-27T05:41:37;97891.00;;;5.34;91.68
5905;BME280;2978;42.012;24.880;2023-01-27T05:44:03;97895.16;;;5.42;91.31
5905;BME280;2978;42.012;24.880;2023-01-27T05:46:30;97885.94;;;5.53;91.07
5905;BME280;2978;42.012;24.880;2023-01-27T05:49:01;97903.59;;;5.40;89.86
5905;BME280;2978;42.012;24.880;2023-01-27T05:51:34;97895.06;;;5.32;91.38
5905;BME280;2978;42.012;24.880;2023-01-27T05:54:00;97885.19;;;5.16;91.42
5905;BME280;2978;42.012;24.880;2023-01-27T05:56:26;97888.44;;;5.18;91.91
5905;BME280;2978;42.012;24.880;2023-01-27T05:58:56;97880.44;;;5.43;91.58
5905;BME280;2978;42.012;24.880;2023-01-27T06:01:25;97885.19;;;5.62;90.69
5905;BME280;2978;42.012;24.880;2023-01-27T06:03:51;97900.31;;;5.85;90.65
5905;BME280;2978;42.012;24.880;2023-01-27T06:06:18;97876.03;;;5.84;89.29
5905;BME280;2978;42.012;24.880;2023-01-27T06:08:44;97885.59;;;5.86;88.63
5905;BME280;2978;42.012;24.880;2023-01-27T06:11:10;97884.25;;;5.94;89.30
5905;BME280;2978;42.012;24.880;2023-01-27T06:13:36;97885.09;;;5.99;88.71
5905;BME280;2978;42.012;24.880;2023-01-27T06:16:04;97885.84;;;5.85;89.23
5905;BME280;2978;42.012;24.880;2023-01-27T06:18:30;97893.34;;;5.57;89.19
5905;BME280;2978;42.012;24.880;2023-01-27T06:20:59;97900.00;;;5.30;90.90
5905;BME280;2978;42.012;24.880;2023-01-27T06:23:26;97896.28;;;5.51;92.05
5905;BME280;2978;42.012;24.880;2023-01-27T06:25:53;97899.88;;;5.61;91.83
5905;BME280;2978;42.012;24.880;2023-01-27T06:28:19;97891.09;;;5.49;91.53
5905;BME280;2978;42.012;24.880;2023-01-27T06:30:45;97893.78;;;5.44;91.72
5905;BME280;2978;42.012;24.880;2023-01-27T06:33:10;97908.91;;;5.67;92.60
5905;BME280;2978;42.012;24.880;2023-01-27T06:35:37;97905.13;;;5.68;91.11
5905;BME280;2978;42.012;24.880;2023-01-27T06:38:05;97901.53;;;5.62;90.64
5905;BME280;2978;42.012;24.880;2023-01-27T06:40:32;97889.69;;;5.37;91.09
5905;BME280;2978;42.012;24.880;2023-01-27T06:42:57;97887.69;;;5.74;91.04
5905;BME280;2978;42.012;24.880;2023-01-27T06:45:23;97880.16;;;5.91;90.77
5905;BME280;2978;42.012;24.880;2023-01-27T06:47:59;97881.34;;;6.15;89.49
5905;BME280;2978;42.012;24.880;2023-01-27T06:50:27;97895.56;;;6.22;88.81
5905;BME280;2978;42.012;24.880;2023-01-27T06:53:11;97884.59;;;6.12;88.36
5905;BME280;2978;42.012;24.880;2023-01-27T06:55:37;97889.03;;;6.33;87.52
5905;BME280;2978;42.012;24.880;2023-01-27T06:58:10;97886.31;;;6.43;86.58
5905;BME280;2978;42.012;24.880;2023-01-27T07:00:36;97888.47;;;6.36;86.46
5905;BME280;2978;42.012;24.880;2023-01-27T07:03:03;97889.56;;;6.35;86.77
5905;BME280;2978;42.012;24.880;2023-01-27T07:05:29;97889.88;;;6.49;87.34
5905;BME280;2978;42.012;24.880;2023-01-27T07:07:54;97895.88;;;6.51;87.38
5905;BME280;2978;42.012;24.880;2023-01-27T07:10:20;97898.34;;;6.57;85.69
5905;BME280;2978;42.012;24.880;2023-01-27T07:12:45;97904.34;;;6.54;84.85
5905;BME280;2978;42.012;24.880;2023-01-27T07:15:11;97906.81;;;6.56;85.67
5905;BME280;2978;42.012;24.880;2023-01-27T07:17:37;97897.28;;;6.58;85.53
5905;BME280;2978;42.012;24.880;2023-01-27T07:20:04;97901.63;;;6.49;85.57
5905;BME280;2978;42.012;24.880;2023-01-27T07:22:30;97896.94;;;6.35;85.66
5905;BME280;2978;42.012;24.880;2023-01-27T07:24:55;97900.72;;;6.19;86.62
5905;BME280;2978;42.012;24.880;2023-01-27T07:27:22;97903.22;;;6.30;87.79
5905;BME280;2978;42.012;24.880;2023-01-27T07:29:47;97914.16;;;6.50;87.34
5905;BME280;2978;42.012;24.880;2023-01-27T07:32:13;97900.78;;;6.44;86.25
5905;BME280;2978;42.012;24.880;2023-01-27T07:34:38;97898.63;;;6.51;86.17
5905;BME280;2978;42.012;24.880;2023-01-27T07:37:04;97891.25;;;6.51;86.63
5905;BME280;2978;42.012;24.880;2023-01-27T07:39:30;97894.28;;;6.60;87.21
5905;BME280;2978;42.012;24.880;2023-01-27T07:41:55;97898.66;;;6.76;87.48
5905;BME280;2978;42.012;24.880;2023-01-27T07:44:23;97885.81;;;7.07;86.45
5905;BME280;2978;42.012;24.880;2023-01-27T07:46:48;97894.00;;;7.32;84.69
5905;BME280;2978;42.012;24.880;2023-01-27T07:49:14;97883.63;;;7.39;84.20
5905;BME280;2978;42.012;24.880;2023-01-27T07:51:39;97883.03;;;7.47;83.31
5905;BME280;2978;42.012;24.880;2023-01-27T07:54:05;97884.38;;;7.59;82.75
5905;BME280;2978;42.012;24.880;2023-01-27T07:56:30;97880.00;;;7.63;82.49
5905;BME280;2978;42.012;24.880;2023-01-27T08:02:25;97891.66;;;7.94;81.50
5905;BME280;2978;42.012;24.880;2023-01-27T08:04:53;97898.50;;;7.96;81.48
5905;BME280;2978;42.012;24.880;2023-01-27T08:07:18;97886.75;;;7.91;82.04
5905;BME280;2978;42.012;24.880;2023-01-27T08:09:47;97884.03;;;7.86;81.62
5905;BME280;2978;42.012;24.880;2023-01-27T08:12:12;97868.75;;;7.70;81.57
5905;BME280;2978;42.012;24.880;2023-01-27T08:14:38;97873.38;;;7.74;83.03
5905;BME280;2978;42.012;24.880;2023-01-27T08:17:03;97874.25;;;7.65;82.39
5905;BME280;2978;42.012;24.880;2023-01-27T08:19:28;97872.84;;;7.72;82.46
5905;BME280;2978;42.012;24.880;2023-01-27T08:21:54;97871.75;;;7.78;81.62
5905;BME280;2978;42.012;24.880;2023-01-27T08:24:19;97870.91;;;7.78;81.60
5905;BME280;2978;42.012;24.880;2023-01-27T08:26:45;97868.41;;;7.86;81.92
5905;BME280;2978;42.012;24.880;2023-01-27T08:29:10;97859.09;;;7.92;81.56
5905;BME280;2978;42.012;24.880;2023-01-27T08:31:35;97858.81;;;7.94;81.41
5905;BME280;2978;42.012;24.880;2023-01-27T08:34:01;97856.31;;;8.02;80.50
5905;BME280;2978;42.012;24.880;2023-01-27T08:36:26;97854.63;;;8.12;80.53
5905;BME280;2978;42.012;24.880;2023-01-27T08:38:52;97844.44;;;8.22;80.62
5905;BME280;2978;42.012;24.880;2023-01-27T08:41:21;97841.97;;;8.31;80.33
5905;BME280;2978;42.012;24.880;2023-01-27T08:43:47;97845.47;;;8.41;79.81
5905;BME280;2978;42.012;24.880;2023-01-27T08:46:13;97852.53;;;8.47;79.74
5905;BME280;2978;42.012;24.880;2023-01-27T08:48:39;97855.97;;;8.24;80.27
5905;BME280;2978;42.012;24.880;2023-01-27T08:51:06;97860.91;;;8.17;80.16
5905;BME280;2978;42.012;24.880;2023-01-27T08:53:32;97860.88;;;8.22;80.13
5905;BME280;2978;42.012;24.880;2023-01-27T08:56:02;97861.72;;;8.23;80.49
5905;BME280;2978;42.012;24.880;2023-01-27T08:58:27;97859.25;;;8.26;80.22
5905;BME280;2978;42.012;24.880;2023-01-27T09:00:53;97861.16;;;8.26;80.19
5905;BME280;2978;42.012;24.880;2023-01-27T09:03:18;97858.38;;;8.31;80.04
5905;BME280;2978;42.012;24.880;2023-01-27T09:05:44;97863.59;;;8.32;79.69
5905;BME280;2978;42.012;24.880;2023-01-27T09:08:10;97858.38;;;8.31;79.14
5905;BME280;2978;42.012;24.880;2023-01-27T09:10:39;97853.75;;;8.21;79.73
5905;BME280;2978;42.012;24.880;2023-01-27T09:13:06;97852.75;;;8.02;80.48
5905;BME280;2978;42.012;24.880;2023-01-27T09:15:34;97855.47;;;8.02;80.87
5905;BME280;2978;42.012;24.880;2023-01-27T09:17:59;97858.97;;;8.18;81.13
5905;BME280;2978;42.012;24.880;2023-01-27T09:20:24;97847.19;;;8.22;80.00
5905;BME280;2978;42.012;24.880;2023-01-27T09:22:50;97827.41;;;8.35;80.32
5905;BME280;2978;42.012;24.880;2023-01-27T09:25:16;97833.72;;;8.36;80.37
5905;BME280;2978;42.012;24.880;2023-01-27T09:27:43;97820.41;;;8.58;80.12
5905;BME280;2978;42.012;24.880;2023-01-27T09:30:10;97815.81;;;8.87;79.09
5905;BME280;2978;42.012;24.880;2023-01-27T09:32:36;97802.16;;;9.10;78.02
5905;BME280;2978;42.012;24.880;2023-01-27T09:35:02;97820.16;;;9.45;76.62
5905;BME280;2978;42.012;24.880;2023-01-27T09:37:28;97803.25;;;9.62;76.28
5905;BME280;2978;42.012;24.880;2023-01-27T09:40:01;97807.69;;;9.58;75.15
5905;BME280;2978;42.012;24.880;2023-01-27T09:42:40;97822.59;;;9.47;75.39
5905;BME280;2978;42.012;24.880;2023-01-27T09:45:18;97811.63;;;9.23;76.25
5905;BME280;2978;42.012;24.880;2023-01-27T09:50:44;97818.50;;;9.21;76.87
5905;BME280;2978;42.012;24.880;2023-01-27T09:53:33;97821.03;;;9.12;77.01
5905;BME280;2978;42.012;24.880;2023-01-27T09:56:14;97802.84;;;8.97;77.90
5905;BME280;2978;42.012;24.880;2023-01-27T10:04:47;97803.59;;;9.03;77.35
5905;BME280;2978;42.012;24.880;2023-01-27T10:09:59;97793.25;;;8.95;78.52
5905;BME280;2978;42.012;24.880;2023-01-27T10:13:16;97786.63;;;9.01;78.92
5905;BME280;2978;42.012;24.880;2023-01-27T10:26:40;97766.91;;;8.99;79.74
5905;BME280;2978;42.012;24.880;2023-01-27T10:29:15;97773.59;;;8.88;80.02
5905;BME280;2978;42.012;24.880;2023-01-27T10:32:18;97765.22;;;8.74;80.57
5905;BME280;2978;42.012;24.880;2023-01-27T10:34:53;97774.78;;;8.43;81.11
5905;BME280;2978;42.012;24.880;2023-01-27T10:37:45;97757.94;;;8.26;81.89
5905;BME280;2978;42.012;24.880;2023-01-27T10:40:38;97758.06;;;8.45;82.09
5905;BME280;2978;42.012;24.880;2023-01-27T10:43:21;97754.41;;;8.54;80.98
5905;BME280;2978;42.012;24.880;2023-01-27T10:49:02;97740.38;;;8.66;80.76
5905;BME280;2978;42.012;24.880;2023-01-27T10:51:34;97733.66;;;8.82;80.19
5905;BME280;2978;42.012;24.880;2023-01-27T10:54:11;97738.50;;;8.90;79.36
5905;BME280;2978;42.012;24.880;2023-01-27T11:01:34;97731.69;;;9.58;77.39
5905;BME280;2978;42.012;24.880;2023-01-27T11:04:20;97727.09;;;9.72;77.51
5905;BME280;2978;42.012;24.880;2023-01-27T11:06:49;97726.06;;;9.87;76.92
5905;BME280;2978;42.012;24.880;2023-01-27T11:09:25;97722.66;;;9.95;76.76
5905;BME280;2978;42.012;24.880;2023-01-27T11:11:55;97725.69;;;9.75;76.46
5905;BME280;2978;42.012;24.880;2023-01-27T11:14:31;97728.59;;;9.83;76.38
5905;BME280;2978;42.012;24.880;2023-01-27T11:17:43;97722.53;;;10.05;75.32
5905;BME280;2978;42.012;24.880;2023-01-27T11:20:34;97723.22;;;9.73;75.69
5905;BME280;2978;42.012;24.880;2023-01-27T11:34:06;97724.03;;;8.56;81.17
5905;BME280;2978;42.012;24.880;2023-01-27T11:36:29;97725.06;;;8.21;81.56
5905;BME280;2978;42.012;24.880;2023-01-27T11:38:56;97718.66;;;8.02;83.27
5905;BME280;2978;42.012;24.880;2023-01-27T11:41:35;97710.19;;;8.04;84.34
5905;BME280;2978;42.012;24.880;2023-01-27T11:44:06;97710.44;;;8.07;84.02
5905;BME280;2978;42.012;24.880;2023-01-27T11:46:33;97704.63;;;8.14;83.34
5905;BME280;2978;42.012;24.880;2023-01-27T11:49:00;97711.53;;;8.01;85.28
5905;BME280;2978;42.012;24.880;2023-01-27T11:51:37;97703.00;;;8.08;85.12
5905;BME280;2978;42.012;24.880;2023-01-27T11:54:14;97688.03;;;8.00;84.72
5905;BME280;2978;42.012;24.880;2023-01-27T11:56:41;97704.16;;;8.02;85.73
5905;BME280;2978;42.012;24.880;2023-01-27T11:59:29;97699.63;;;8.26;85.56
5905;BME280;2978;42.012;24.880;2023-01-27T12:02:02;97701.63;;;8.49;85.22
5905;BME280;2978;42.012;24.880;2023-01-27T12:04:54;97702.19;;;8.74;84.20
5905;BME280;2978;42.012;24.880;2023-01-27T12:09:48;97693.41;;;9.25;82.54
5905;BME280;2978;42.012;24.880;2023-01-27T12:19:57;97678.84;;;9.29;80.54
5905;BME280;2978;42.012;24.880;2023-01-27T12:22:26;97676.97;;;9.43;80.47
5905;BME280;2978;42.012;24.880;2023-01-27T12:25:00;97676.81;;;9.58;80.28
5905;BME280;2978;42.012;24.880;2023-01-27T12:27:29;97679.94;;;9.70;80.15
5905;BME280;2978;42.012;24.880;2023-01-27T12:30:02;97682.88;;;9.92;78.07
5905;BME280;2978;42.012;24.880;2023-01-27T12:32:37;97682.94;;;10.11;76.65
5905;BME280;2978;42.012;24.880;2023-01-27T12:35:05;97681.84;;;10.26;76.25
5905;BME280;2978;42.012;24.880;2023-01-27T12:37:36;97674.13;;;10.28;75.63
5905;BME280;2978;42.012;24.880;2023-01-27T12:40:06;97672.50;;;10.27;75.30
5905;BME280;2978;42.012;24.880;2023-01-27T12:45:32;97677.22;;;10.02;75.77
5905;BME280;2978;42.012;24.880;2023-01-27T12:50:35;97675.63;;;9.83;77.69
5905;BME280;2978;42.012;24.880;2023-01-27T12:53:11;97672.13;;;9.96;77.81
5905;BME280;2978;42.012;24.880;2023-01-27T12:55:45;97671.41;;;10.09;78.10
5905;BME280;2978;42.012;24.880;2023-01-27T12:58:30;97666.50;;;10.25;77.41
5905;BME280;2978;42.012;24.880;2023-01-27T13:00:59;97661.66;;;9.98;77.22
5905;BME280;2978;42.012;24.880;2023-01-27T13:03:25;97660.88;;;9.79;78.28
5905;BME280;2978;42.012;24.880;2023-01-27T13:05:54;97663.44;;;9.89;78.32
5905;BME280;2978;42.012;24.880;2023-01-27T13:08:21;97664.28;;;9.71;79.31
5905;BME280;2978;42.012;24.880;2023-01-27T13:10:55;97656.13;;;9.66;79.92
5905;BME280;2978;42.012;24.880;2023-01-27T13:13:26;97657.06;;;9.56;80.39
5905;BME280;2978;42.012;24.880;2023-01-27T13:15:56;97651.06;;;9.73;80.41
5905;BME280;2978;42.012;24.880;2023-01-27T13:18:32;97662.94;;;9.87;80.23
5905;BME280;2978;42.012;24.880;2023-01-27T13:21:02;97665.91;;;9.72;80.50
5905;BME280;2978;42.012;24.880;2023-01-27T13:23:35;97667.22;;;9.56;80.96
5905;BME280;2978;42.012;24.880;2023-01-27T13:31:09;97663.94;;;9.35;81.03
5905;BME280;2978;42.012;24.880;2023-01-27T13:33:46;97647.09;;;9.23;82.14
5905;BME280;2978;42.012;24.880;2023-01-27T13:36:27;97648.16;;;9.27;82.35
5905;BME280;2978;42.012;24.880;2023-01-27T13:42:10;97663.19;;;9.30;82.09
5905;BME280;2978;42.012;24.880;2023-01-27T13:45:00;97672.19;;;8.88;84.06
5905;BME280;2978;42.012;24.880;2023-01-27T13:48:00;97679.75;;;8.72;85.62
5905;BME280;2978;42.012;24.880;2023-01-27T13:50:47;97688.25;;;8.71;85.12
5905;BME280;2978;42.012;24.880;2023-01-27T13:53:17;97686.16;;;8.63;84.89
5905;BME280;2978;42.012;24.880;2023-01-27T14:01:21;97679.72;;;8.49;85.88
5905;BME280;2978;42.012;24.880;2023-01-27T14:04:07;97682.50;;;8.44;85.64
5905;BME280;2978;42.012;24.880;2023-01-27T14:06:46;97691.13;;;8.22;85.47
5905;BME280;2978;42.012;24.880;2023-01-27T14:18:20;97686.03;;;7.13;92.53
5905;BME280;2978;42.012;24.880;2023-01-27T14:28:30;97694.00;;;7.05;93.56
5905;BME280;2978;42.012;24.880;2023-01-27T14:31:12;97700.88;;;6.97;94.27
5905;BME280;2978;42.012;24.880;2023-01-27T14:33:59;97701.41;;;7.04;94.55
5905;BME280;2978;42.012;24.880;2023-01-27T14:36:44;97700.59;;;6.99;94.30
5905;BME280;2978;42.012;24.880;2023-01-27T14:39:16;97701.94;;;6.96;94.46
5905;BME280;2978;42.012;24.880;2023-01-27T14:41:50;97696.72;;;7.05;94.86
5905;BME280;2978;42.012;24.880;2023-01-27T14:46:56;97700.59;;;6.94;94.23
5905;BME280;2978;42.012;24.880;2023-01-27T14:52:01;97698.44;;;6.85;95.54
5905;BME280;2978;42.012;24.880;2023-01-27T15:12:19;97698.31;;;8.13;89.61
5905;BME280;2978;42.012;24.880;2023-01-27T15:22:58;97692.09;;;8.02;89.51
5905;BME280;2978;42.012;24.880;2023-01-27T15:25:31;97700.28;;;8.08;90.34
5905;BME280;2978;42.012;24.880;2023-01-27T15:28:00;97709.34;;;8.03;90.08
5905;BME280;2978;42.012;24.880;2023-01-27T15:30:34;97692.75;;;8.23;91.02
5905;BME280;2978;42.012;24.880;2023-01-27T15:33:02;97713.03;;;8.22;90.65
5905;BME280;2978;42.012;24.880;2023-01-27T15:35:31;97704.72;;;8.37;90.42
5905;BME280;2978;42.012;24.880;2023-01-27T15:40:24;97700.06;;;8.38;89.46
5905;BME280;2978;42.012;24.880;2023-01-27T15:43:12;97701.03;;;8.18;90.69
5905;BME280;2978;42.012;24.880;2023-01-27T15:45:44;97696.81;;;7.92;91.08
5905;BME280;2978;42.012;24.880;2023-01-27T15:48:22;97707.84;;;7.82;91.92
5905;BME280;2978;42.012;24.880;2023-01-27T15:53:42;97709.19;;;7.89;92.05
5905;BME280;2978;42.012;24.880;2023-01-27T15:56:09;97716.03;;;7.87;91.86